createdAt,value
2022-12-12T00:01:40.493Z,43.70
2022-12-12T00:04:14.254Z,43.80
2022-12-12T00:06:48.146Z,43.50
2022-12-12T00:09:21.760Z,43.70
2022-12-12T00:11:56.873Z,43.70
2022-12-12T00:14:30.506Z,43.80
2022-12-12T00:17:04.518Z,43.80
2022-12-12T00:19:38.958Z,43.70
2022-12-12T00:22:12.566Z,43.70
2022-12-12T00:24:46.199Z,43.60
2022-12-12T00:27:21.205Z,43.50
2022-12-12T00:29:55.191Z,43.60
2022-12-12T00:32:28.863Z,43.20
2022-12-12T00:35:02.492Z,43.70
2022-12-12T00:37:36.226Z,43.90
2022-12-12T00:40:10.486Z,44.10
2022-12-12T00:42:45.555Z,44.10
2022-12-12T00:45:19.301Z,44.20
2022-12-12T00:47:52.986Z,44.60
2022-12-12T00:50:26.610Z,44.60
2022-12-12T00:53:00.138Z,44.60
2022-12-12T00:55:41.711Z,44.60
2022-12-12T00:58:25.695Z,44.80
2022-12-12T01:01:06.465Z,44.70
2022-12-12T01:03:41.213Z,45.00
2022-12-12T01:06:14.953Z,44.90
2022-12-12T01:08:48.530Z,45.20
2022-12-12T01:11:22.861Z,45.20
2022-12-12T01:13:57.836Z,45.80
2022-12-12T01:16:31.851Z,45.30
2022-12-12T01:19:05.536Z,45.20
2022-12-12T01:21:39.215Z,45.30
2022-12-12T01:24:12.864Z,45.30
2022-12-12T01:26:47.452Z,45.40
2022-12-12T01:29:22.727Z,45.30
2022-12-12T01:31:59.156Z,45.20
2022-12-12T01:34:32.935Z,45.20
2022-12-12T01:37:06.558Z,45.20
2022-12-12T01:39:40.139Z,45.20
2022-12-12T01:42:14.792Z,45.20
2022-12-12T01:44:53.691Z,45.20
2022-12-12T01:47:27.906Z,45.20
2022-12-12T01:50:04.225Z,45.20
2022-12-12T01:52:41.078Z,45.20
2022-12-12T01:55:16.624Z,45.20
2022-12-12T01:57:52.815Z,45.40
2022-12-12T02:00:27.966Z,45.60
2022-12-12T02:03:01.695Z,45.50
2022-12-12T02:05:37.385Z,45.60
2022-12-12T02:08:13.141Z,45.50
2022-12-12T02:10:47.236Z,45.50
2022-12-12T02:13:23.519Z,45.50
2022-12-12T02:16:04.369Z,45.30
2022-12-12T02:18:40.370Z,45.30
2022-12-12T02:21:17.421Z,45.30
2022-12-12T02:24:11.486Z,45.30
2022-12-12T02:27:04.150Z,45.30
2022-12-12T02:30:03.456Z,45.30
2022-12-12T02:32:51.929Z,45.30
2022-12-12T02:35:31.965Z,45.30
2022-12-12T02:38:08.896Z,45.30
2022-12-12T02:40:46.566Z,45.40
2022-12-12T02:43:22.444Z,45.50
2022-12-12T02:45:57.961Z,45.50
2022-12-12T02:48:33.590Z,45.50
2022-12-12T02:51:09.935Z,45.50
2022-12-12T02:53:43.548Z,45.50
2022-12-12T02:56:35.725Z,45.60
2022-12-12T02:59:09.697Z,45.50
2022-12-12T03:01:50.581Z,45.50
2022-12-12T03:04:44.119Z,45.40
2022-12-12T03:07:39.741Z,45.40
2022-12-12T03:10:18.417Z,45.40
2022-12-12T03:12:58.980Z,45.40
2022-12-12T03:15:39.623Z,45.30
2022-12-12T03:18:19.684Z,45.30
2022-12-12T03:20:56.356Z,45.40
2022-12-12T03:23:34.141Z,45.40
2022-12-12T03:26:11.119Z,45.40
2022-12-12T03:28:48.306Z,45.60
2022-12-12T03:31:24.184Z,45.50
2022-12-12T03:33:59.221Z,45.60
2022-12-12T03:36:34.604Z,45.70
2022-12-12T03:39:13.173Z,45.70
2022-12-12T03:41:50.397Z,45.60
2022-12-12T03:44:25.009Z,45.60
2022-12-12T03:47:00.771Z,45.50
2022-12-12T03:49:36.242Z,45.40
2022-12-12T03:52:12.688Z,45.40
2022-12-12T03:54:50.103Z,45.30
2022-12-12T03:57:24.734Z,45.30
2022-12-12T04:00:00.776Z,45.30
2022-12-12T04:02:38.262Z,45.30
2022-12-12T04:05:16.149Z,45.30
2022-12-12T04:07:53.842Z,45.30
2022-12-12T04:10:47.706Z,45.30
2022-12-12T04:13:32.282Z,45.30
2022-12-12T04:16:10.572Z,45.30
2022-12-12T04:18:50.522Z,45.30
2022-12-12T04:21:49.850Z,45.30
2022-12-12T04:24:29.901Z,45.10
2022-12-12T04:27:06.610Z,45.10
2022-12-12T04:29:42.564Z,45.10
2022-12-12T04:32:19.257Z,45.00
2022-12-12T04:34:55.452Z,45.00
2022-12-12T04:37:30.674Z,44.90
2022-12-12T04:40:06.718Z,45.00
2022-12-12T04:42:44.206Z,44.80
2022-12-12T04:45:20.238Z,44.80
2022-12-12T04:47:54.974Z,44.70
2022-12-12T04:50:30.374Z,44.80
2022-12-12T04:53:12.171Z,44.80
2022-12-12T04:55:49.777Z,44.90
2022-12-12T04:58:25.133Z,45.20
2022-12-12T05:01:02.172Z,45.70
2022-12-12T05:03:39.360Z,45.60
2022-12-12T05:06:14.361Z,45.80
2022-12-12T05:08:48.878Z,46.00
2022-12-12T05:11:22.669Z,46.00
2022-12-12T05:13:57.816Z,46.00
2022-12-12T05:16:33.321Z,46.20
2022-12-12T05:19:07.138Z,46.50
2022-12-12T05:21:40.841Z,46.30
2022-12-12T05:24:14.515Z,46.10
2022-12-12T05:26:48.383Z,46.10
2022-12-12T05:29:23.443Z,46.00
2022-12-12T05:32:03.106Z,46.00
2022-12-12T05:34:37.265Z,45.90
2022-12-12T05:37:12.643Z,45.80
2022-12-12T05:39:46.426Z,45.70
2022-12-12T05:42:21.731Z,45.60
2022-12-12T05:44:56.850Z,45.50
2022-12-12T05:47:30.516Z,45.30
2022-12-12T05:50:04.150Z,45.30
2022-12-12T05:52:37.906Z,45.20
2022-12-12T05:55:12.034Z,45.10
2022-12-12T05:57:45.894Z,45.10
2022-12-12T06:00:21.456Z,45.00
2022-12-12T06:02:55.022Z,44.90
2022-12-12T06:05:28.619Z,44.90
2022-12-12T06:08:02.381Z,44.80
2022-12-12T06:10:36.066Z,44.70
2022-12-12T06:13:09.784Z,44.70
2022-12-12T06:15:44.946Z,44.60
2022-12-12T06:18:18.987Z,44.60
2022-12-12T06:20:52.655Z,44.50
2022-12-12T06:23:26.232Z,44.40
2022-12-12T06:25:59.835Z,44.40
2022-12-12T06:28:33.634Z,44.40
2022-12-12T06:31:11.791Z,44.30
2022-12-12T06:33:45.995Z,44.20
2022-12-12T06:36:24.284Z,44.10
2022-12-12T06:38:59.076Z,44.10
2022-12-12T06:41:33.422Z,44.10
2022-12-12T06:44:07.139Z,44.10
2022-12-12T06:46:42.329Z,44.00
2022-12-12T06:49:16.038Z,43.90
2022-12-12T06:51:49.700Z,44.00
2022-12-12T06:54:23.789Z,43.90
2022-12-12T06:56:57.445Z,43.90
2022-12-12T06:59:31.080Z,44.00
2022-12-12T07:02:06.455Z,44.00
2022-12-12T07:04:40.444Z,43.40
2022-12-12T07:07:17.931Z,43.70
2022-12-12T07:09:52.236Z,43.30
2022-12-12T07:12:26.389Z,43.40
2022-12-12T07:15:00.046Z,43.40
2022-12-12T07:17:35.277Z,43.70
2022-12-12T07:20:09.947Z,43.90
2022-12-12T07:22:43.615Z,43.80
2022-12-12T07:25:17.476Z,43.80
2022-12-12T07:27:51.155Z,43.80
2022-12-12T07:30:25.173Z,43.80
2022-12-12T07:33:00.266Z,43.90
2022-12-12T07:35:34.163Z,43.80
2022-12-12T07:38:07.777Z,43.90
2022-12-12T07:40:41.472Z,44.00
2022-12-12T07:43:15.044Z,44.00
2022-12-12T07:45:49.118Z,44.00
2022-12-12T07:48:24.126Z,44.20
2022-12-12T07:51:00.842Z,44.20
2022-12-12T07:53:34.531Z,44.20
2022-12-12T07:56:09.092Z,44.30
2022-12-12T07:58:42.872Z,44.40
2022-12-12T08:01:17.793Z,44.40
2022-12-12T08:03:54.611Z,44.50
2022-12-12T08:06:28.278Z,44.60
2022-12-12T08:09:02.024Z,44.60
2022-12-12T08:11:35.860Z,44.60
2022-12-12T08:14:13.094Z,44.60
2022-12-12T08:16:47.066Z,44.50
2022-12-12T08:19:22.233Z,44.40
2022-12-12T08:21:55.920Z,44.60
2022-12-12T08:24:30.143Z,44.60
2022-12-12T08:32:08.667Z,44.00
2022-12-12T08:34:42.625Z,44.60
2022-12-12T08:37:16.164Z,44.70
2022-12-12T08:39:54.203Z,44.80
2022-12-12T08:42:29.591Z,44.80
2022-12-12T08:45:03.611Z,44.80
2022-12-12T08:47:39.037Z,44.80
2022-12-12T08:50:13.482Z,44.90
2022-12-12T08:52:47.501Z,44.70
2022-12-12T08:55:21.322Z,44.50
2022-12-12T08:57:55.487Z,44.40
2022-12-12T09:00:30.149Z,44.60
2022-12-12T09:03:07.019Z,44.70
2022-12-12T09:05:45.393Z,44.80
2022-12-12T09:08:19.404Z,44.90
2022-12-12T09:10:53.961Z,44.90
2022-12-12T09:13:28.167Z,44.80
2022-12-12T09:16:02.243Z,44.70
2022-12-12T09:18:40.824Z,44.60
2022-12-12T09:21:19.120Z,44.40
2022-12-12T09:23:53.779Z,44.30
2022-12-12T09:26:27.881Z,44.10
2022-12-12T09:29:02.013Z,43.90
2022-12-12T09:31:36.043Z,43.70
2022-12-12T09:34:12.418Z,43.50
2022-12-12T09:36:46.409Z,43.10
2022-12-12T09:39:20.392Z,42.80
2022-12-12T09:41:54.547Z,42.70
2022-12-12T09:44:28.848Z,42.30
2022-12-12T09:47:07.104Z,42.20
2022-12-12T09:49:48.261Z,42.20
2022-12-12T09:52:31.454Z,41.90
2022-12-12T09:55:27.426Z,41.60
2022-12-12T09:58:06.685Z,41.70
2022-12-12T10:00:50.616Z,41.90
2022-12-12T10:03:33.334Z,41.70
2022-12-12T10:06:36.535Z,41.90
2022-12-12T10:09:23.240Z,42.20
2022-12-12T10:12:00.050Z,42.40
2022-12-12T10:14:43.981Z,42.50
2022-12-12T10:17:20.908Z,42.40
2022-12-12T10:19:57.134Z,42.60
2022-12-12T10:22:38.921Z,42.50
2022-12-12T10:25:22.555Z,42.10
2022-12-12T10:28:02.048Z,42.00
2022-12-12T10:30:47.927Z,39.20
2022-12-12T10:33:49.811Z,32.70
2022-12-12T10:36:36.667Z,33.00
2022-12-12T10:39:23.506Z,33.70
2022-12-12T10:42:02.762Z,34.40
2022-12-12T10:44:57.566Z,34.80
2022-12-12T10:47:32.454Z,35.70
2022-12-12T10:50:21.473Z,34.60
2022-12-12T10:52:55.321Z,34.90
2022-12-12T10:55:36.442Z,35.60
2022-12-12T10:58:10.318Z,36.30
2022-12-12T11:00:45.810Z,35.50
2022-12-12T11:03:28.227Z,37.00
2022-12-12T11:06:06.146Z,36.40
2022-12-12T11:08:40.532Z,36.20
2022-12-12T11:11:23.357Z,36.50
2022-12-12T11:14:00.689Z,36.90
2022-12-12T11:16:44.423Z,36.70
2022-12-12T11:19:20.765Z,37.40
2022-12-12T11:21:56.608Z,37.30
2022-12-12T11:24:33.576Z,37.20
2022-12-12T11:27:10.018Z,37.30
2022-12-12T11:29:47.447Z,37.40
2022-12-12T11:32:23.741Z,37.20
2022-12-12T11:35:02.035Z,37.60
2022-12-12T11:37:40.778Z,37.20
2022-12-12T11:40:24.881Z,37.50
2022-12-12T11:43:24.457Z,38.00
2022-12-12T11:46:05.241Z,38.20
2022-12-12T11:48:44.105Z,37.90
2022-12-12T11:51:33.667Z,38.00
2022-12-12T11:54:13.430Z,38.70
2022-12-12T11:56:52.401Z,38.20
2022-12-12T11:59:45.305Z,38.00
2022-12-12T12:02:49.072Z,38.60
2022-12-12T12:05:29.356Z,38.50
2022-12-12T12:08:17.648Z,38.20
2022-12-12T12:11:06.418Z,38.30
2022-12-12T12:13:53.776Z,38.30
2022-12-12T12:16:40.495Z,39.10
2022-12-12T12:19:19.759Z,38.50
2022-12-12T12:22:05.331Z,38.30
2022-12-12T12:24:59.870Z,38.50
2022-12-12T12:27:45.587Z,38.30
2022-12-12T12:30:24.120Z,38.50
2022-12-12T12:33:51.081Z,38.30
2022-12-12T12:36:28.076Z,37.90
2022-12-12T12:39:13.735Z,38.00
2022-12-12T12:42:07.068Z,38.40
2022-12-12T12:44:49.136Z,39.40
2022-12-12T12:47:30.425Z,39.60
2022-12-12T12:50:17.666Z,40.00
2022-12-12T12:52:58.617Z,40.10
2022-12-12T12:55:50.804Z,40.20
2022-12-12T12:58:44.296Z,40.50
2022-12-12T13:01:27.638Z,40.10
2022-12-12T13:04:07.001Z,39.60
2022-12-12T13:06:48.852Z,39.60
2022-12-12T13:09:35.467Z,39.60
2022-12-12T13:12:18.631Z,39.60
2022-12-12T13:14:57.984Z,39.80
2022-12-12T13:17:46.265Z,39.80
2022-12-12T13:20:45.732Z,39.40
2022-12-12T13:23:50.846Z,39.20
2022-12-12T13:26:30.400Z,38.80
2022-12-12T13:29:12.122Z,38.80
2022-12-12T13:32:10.281Z,38.80
2022-12-12T13:34:48.980Z,38.80
2022-12-12T13:37:24.554Z,38.80
2022-12-12T13:40:06.132Z,38.80
2022-12-12T13:42:54.692Z,38.90
2022-12-12T13:45:39.414Z,39.10
2022-12-12T13:48:46.724Z,39.40
2022-12-12T13:51:37.370Z,39.20
2022-12-12T13:54:54.975Z,39.50
2022-12-12T13:57:33.668Z,40.10
2022-12-12T14:00:29.136Z,39.90
2022-12-12T14:03:09.086Z,40.50
2022-12-12T14:05:44.989Z,39.70
2022-12-12T14:08:27.113Z,39.60
2022-12-12T14:11:03.859Z,39.80
2022-12-12T14:13:46.030Z,39.70
2022-12-12T14:16:26.009Z,39.80
2022-12-12T14:19:04.975Z,39.70
2022-12-12T14:21:45.256Z,39.70
2022-12-12T14:24:59.543Z,39.70
2022-12-12T14:28:15.947Z,39.70
2022-12-12T14:31:07.518Z,39.80
2022-12-12T14:34:04.287Z,39.40
2022-12-12T14:37:22.988Z,39.80
2022-12-12T14:40:12.624Z,39.90
2022-12-12T14:43:18.793Z,39.40
2022-12-12T14:45:58.286Z,39.30
2022-12-12T14:48:34.393Z,39.10
2022-12-12T14:51:13.624Z,39.30
2022-12-12T14:53:49.780Z,39.90
2022-12-12T14:56:28.655Z,40.40
2022-12-12T14:59:07.829Z,40.70
2022-12-12T15:01:51.895Z,41.00
2022-12-12T15:04:29.211Z,41.20
2022-12-12T15:07:05.072Z,41.60
2022-12-12T15:09:41.015Z,41.90
2022-12-12T15:12:19.845Z,42.10
2022-12-12T15:14:59.274Z,42.40
2022-12-12T15:17:37.518Z,42.40
2022-12-12T15:20:19.142Z,42.40
2022-12-12T15:22:57.331Z,42.20
2022-12-12T15:25:34.020Z,42.20
2022-12-12T15:28:08.529Z,42.20
2022-12-12T15:30:44.673Z,42.40
2022-12-12T15:33:21.436Z,42.30
2022-12-12T15:36:02.294Z,42.20
2022-12-12T15:38:37.115Z,41.90
2022-12-12T15:41:13.810Z,41.90
2022-12-12T15:43:48.190Z,42.10
2022-12-12T15:46:22.214Z,42.30
2022-12-12T15:48:56.145Z,42.40
2022-12-12T15:51:33.285Z,42.50
2022-12-12T15:54:07.845Z,42.80
2022-12-12T15:56:41.851Z,42.90
2022-12-12T15:59:23.114Z,43.00
2022-12-12T16:01:57.404Z,43.10
2022-12-12T16:04:31.766Z,43.20
2022-12-12T16:07:12.311Z,43.20
2022-12-12T16:10:01.321Z,43.20
2022-12-12T16:13:01.354Z,43.60
2022-12-12T16:15:37.068Z,43.90
2022-12-12T16:18:19.820Z,44.10
2022-12-12T16:20:56.124Z,44.10
2022-12-12T16:23:32.744Z,44.10
2022-12-12T16:26:10.462Z,44.00
2022-12-12T16:28:44.766Z,44.00
2022-12-12T16:31:19.899Z,44.10
2022-12-12T16:33:55.574Z,44.30
2022-12-12T16:36:29.481Z,44.40
2022-12-12T16:39:03.508Z,44.50
2022-12-12T16:41:39.340Z,44.70
2022-12-12T16:44:13.354Z,44.60
2022-12-12T16:46:47.304Z,44.60
2022-12-12T16:49:20.934Z,44.70
2022-12-12T16:51:54.808Z,45.00
2022-12-12T16:54:29.647Z,45.00
2022-12-12T16:57:05.105Z,45.10
2022-12-12T16:59:39.810Z,45.30
2022-12-12T17:02:20.498Z,45.30
2022-12-12T17:04:54.332Z,45.40
2022-12-12T17:07:27.983Z,45.40
2022-12-12T17:10:01.850Z,45.60
2022-12-12T17:12:38.996Z,45.40
2022-12-12T17:15:15.690Z,45.70
2022-12-12T17:17:49.842Z,45.70
2022-12-12T17:20:24.255Z,45.70
2022-12-12T17:25:47.678Z,45.60
2022-12-12T17:28:23.032Z,45.60
2022-12-12T17:30:56.940Z,45.70
2022-12-12T17:33:30.567Z,45.80
2022-12-12T17:36:06.201Z,46.10
2022-12-12T17:38:40.147Z,45.90
2022-12-12T17:41:14.317Z,46.00
2022-12-12T17:43:55.315Z,46.10
2022-12-12T17:46:30.134Z,46.00
2022-12-12T17:49:04.287Z,46.10
2022-12-12T17:51:38.191Z,46.10
2022-12-12T17:54:12.199Z,45.90
2022-12-12T17:56:46.445Z,46.00
2022-12-12T17:59:21.657Z,46.00
2022-12-12T18:01:55.871Z,45.90
2022-12-12T18:04:35.884Z,45.90
2022-12-12T18:07:10.442Z,45.80
2022-12-12T18:09:45.060Z,46.40
2022-12-12T18:12:19.616Z,45.80
2022-12-12T18:14:54.975Z,46.00
2022-12-12T18:17:28.839Z,46.00
2022-12-12T18:20:02.457Z,46.00
2022-12-12T18:22:36.587Z,46.10
2022-12-12T18:25:11.203Z,46.10
2022-12-12T18:27:45.041Z,46.10
2022-12-12T18:30:20.129Z,46.10
2022-12-12T18:32:57.186Z,46.30
2022-12-12T18:35:35.126Z,46.10
2022-12-12T18:38:09.023Z,46.10
2022-12-12T18:40:42.576Z,46.00
2022-12-12T18:43:16.632Z,46.00
2022-12-12T18:45:52.147Z,46.10
2022-12-12T18:48:26.043Z,46.50
2022-12-12T18:51:04.697Z,46.80
2022-12-12T18:53:41.182Z,47.20
2022-12-12T18:56:17.138Z,47.10
2022-12-12T18:58:53.274Z,47.30
2022-12-12T19:01:30.500Z,47.40
2022-12-12T19:04:11.732Z,47.70
2022-12-12T19:06:47.451Z,47.90
2022-12-12T19:09:21.951Z,48.10
2022-12-12T19:12:02.233Z,48.40
2022-12-12T19:14:59.712Z,48.60
2022-12-12T19:17:32.033Z,48.60
2022-12-12T19:20:06.653Z,48.70
2022-12-12T19:22:45.586Z,48.70
2022-12-12T19:25:21.104Z,48.90
2022-12-12T19:27:54.953Z,49.20
2022-12-12T19:30:29.938Z,49.20
2022-12-12T19:33:05.451Z,50.00
2022-12-12T19:35:39.396Z,49.40
2022-12-12T19:38:13.364Z,49.50
2022-12-12T19:40:47.332Z,49.50
2022-12-12T19:43:21.616Z,49.40
2022-12-12T19:46:04.431Z,49.00
2022-12-12T19:48:40.465Z,48.40
2022-12-12T19:51:16.976Z,48.20
2022-12-12T19:53:52.491Z,48.20
2022-12-12T19:56:28.345Z,47.80
2022-12-12T19:59:03.344Z,47.50
2022-12-12T20:01:40.334Z,47.10
2022-12-12T20:04:18.951Z,46.60
2022-12-12T20:06:53.132Z,46.40
2022-12-12T20:09:29.001Z,46.20
2022-12-12T20:12:03.039Z,45.90
2022-12-12T20:14:37.553Z,45.60
2022-12-12T20:17:11.735Z,45.40
2022-12-12T20:19:48.961Z,45.30
2022-12-12T20:22:22.876Z,45.60
2022-12-12T20:24:56.499Z,46.00
2022-12-12T20:27:30.318Z,46.60
2022-12-12T20:30:03.982Z,46.50
2022-12-12T20:32:37.849Z,47.20
2022-12-12T20:35:13.969Z,47.10
2022-12-12T20:37:47.791Z,47.40
2022-12-12T20:40:22.762Z,47.60
2022-12-12T20:43:03.047Z,48.00
2022-12-12T20:45:39.185Z,47.70
2022-12-12T20:48:13.157Z,47.80
2022-12-12T20:50:49.387Z,47.80
2022-12-12T20:53:23.670Z,47.70
2022-12-12T20:55:57.862Z,47.60
2022-12-12T20:58:31.840Z,47.60
2022-12-12T21:01:12.084Z,48.40
2022-12-12T21:03:47.010Z,48.60
2022-12-12T21:06:24.026Z,48.50
2022-12-12T21:09:00.790Z,48.60
2022-12-12T21:11:34.915Z,48.60
2022-12-12T21:14:18.990Z,48.40
2022-12-12T21:16:53.752Z,48.50
2022-12-12T21:19:28.463Z,48.50
2022-12-12T21:22:04.059Z,48.70
2022-12-12T21:24:38.790Z,48.70
2022-12-12T21:27:12.780Z,48.80
2022-12-12T21:29:47.610Z,48.90
2022-12-12T21:32:21.628Z,48.90
2022-12-12T21:34:55.563Z,48.90
2022-12-12T21:37:38.610Z,49.10
2022-12-12T21:40:15.110Z,49.00
2022-12-12T21:42:49.222Z,49.10
2022-12-12T21:45:24.381Z,49.10
2022-12-12T21:47:58.440Z,49.10
2022-12-12T21:50:32.863Z,49.10
2022-12-12T21:53:26.877Z,49.10
2022-12-12T21:56:05.739Z,49.00
2022-12-12T21:58:41.040Z,49.10
2022-12-12T22:01:19.173Z,48.90
2022-12-12T22:03:53.846Z,49.50
2022-12-12T22:06:30.789Z,49.50
2022-12-12T22:09:08.517Z,49.50
2022-12-12T22:11:49.918Z,49.50
2022-12-12T22:14:25.542Z,49.50
2022-12-12T22:16:59.580Z,49.40
2022-12-12T22:19:33.364Z,49.50
2022-12-12T22:22:07.349Z,49.70
2022-12-12T22:24:42.809Z,49.50
2022-12-12T22:27:16.783Z,49.50
2022-12-12T22:29:50.799Z,50.20
2022-12-12T22:32:26.829Z,49.50
2022-12-12T22:35:01.249Z,49.60
2022-12-12T22:37:36.412Z,49.70
2022-12-12T22:40:12.955Z,49.80
2022-12-12T22:42:47.943Z,49.80
2022-12-12T22:45:22.173Z,49.90
2022-12-12T22:47:56.109Z,49.90
2022-12-12T22:50:30.091Z,49.80
2022-12-12T22:53:04.018Z,49.80
2022-12-12T22:55:39.586Z,49.70
2022-12-12T22:58:13.513Z,50.00
2022-12-12T23:00:47.592Z,49.60
2022-12-12T23:03:21.443Z,49.80
2022-12-12T23:05:55.552Z,49.60
2022-12-12T23:08:29.585Z,49.10
2022-12-12T23:11:10.413Z,48.90
2022-12-12T23:13:45.491Z,48.90
2022-12-12T23:16:22.241Z,48.30
2022-12-12T23:18:56.626Z,47.80
2022-12-12T23:21:30.769Z,47.70
2022-12-12T23:24:05.205Z,47.80
2022-12-12T23:26:44.451Z,48.10
2022-12-12T23:29:24.496Z,48.40
2022-12-12T23:32:03.655Z,48.50
2022-12-12T23:34:38.847Z,49.10
2022-12-12T23:37:16.600Z,48.70
2022-12-12T23:39:54.499Z,48.70
2022-12-12T23:42:32.626Z,48.50
2022-12-12T23:45:10.680Z,49.20
2022-12-12T23:47:49.963Z,48.40
2022-12-12T23:50:24.575Z,48.70
2022-12-12T23:53:00.084Z,48.80
2022-12-12T23:55:35.273Z,48.90
2022-12-12T23:58:12.570Z,49.10
